sensor_id;sensor_type;location;lat;lon;timestamp;P1;durP1;ratioP1;P2;durP2;ratioP2
58669;SDS011;44439;47.924;10.198;2023-05-07T00:00:56;4.57;;;3.30;;
58669;SDS011;44439;47.924;10.198;2023-05-07T00:03:41;4.35;;;3.50;;
58669;SDS011;44439;47.924;10.198;2023-05-07T00:06:27;3.13;;;2.70;;
58669;SDS011;44439;47.924;10.198;2023-05-07T00:09:14;4.05;;;3.45;;
58669;SDS011;44439;47.924;10.198;2023-05-07T00:11:59;5.15;;;3.22;;
58669;SDS011;44439;47.924;10.198;2023-05-07T00:14:45;3.90;;;3.08;;
58669;SDS011;44439;47.924;10.198;2023-05-07T00:17:32;3.80;;;3.45;;
58669;SDS011;44439;47.924;10.198;2023-05-07T00:20:17;6.68;;;3.60;;
58669;SDS011;44439;47.924;10.198;2023-05-07T00:23:03;3.22;;;2.92;;
58669;SDS011;44439;47.924;10.198;2023-05-07T00:25:48;4.03;;;3.10;;
58669;SDS011;44439;47.924;10.198;2023-05-07T00:28:34;4.38;;;3.38;;
58669;SDS011;44439;47.924;10.198;2023-05-07T00:31:19;4.45;;;3.38;;
58669;SDS011;44439;47.924;10.198;2023-05-07T00:34:05;4.70;;;3.88;;
58669;SDS011;44439;47.924;10.198;2023-05-07T00:36:51;4.57;;;3.53;;
58669;SDS011;44439;47.924;10.198;2023-05-07T00:39:36;4.07;;;3.50;;
58669;SDS011;44439;47.924;10.198;2023-05-07T00:42:22;6.03;;;3.90;;
58669;SDS011;44439;47.924;10.198;2023-05-07T00:45:07;5.03;;;4.07;;
58669;SDS011;44439;47.924;10.198;2023-05-07T00:47:57;7.88;;;4.40;;
58669;SDS011;44439;47.924;10.198;2023-05-07T00:50:43;6.22;;;3.83;;
58669;SDS011;44439;47.924;10.198;2023-05-07T00:53:28;7.10;;;3.35;;
58669;SDS011;44439;47.924;10.198;2023-05-07T00:56:15;4.32;;;3.92;;
58669;SDS011;44439;47.924;10.198;2023-05-07T00:59:01;6.13;;;4.57;;
58669;SDS011;44439;47.924;10.198;2023-05-07T01:01:47;4.80;;;3.83;;
58669;SDS011;44439;47.924;10.198;2023-05-07T01:04:32;5.25;;;4.05;;
58669;SDS011;44439;47.924;10.198;2023-05-07T01:07:18;4.25;;;3.85;;
58669;SDS011;44439;47.924;10.198;2023-05-07T01:10:04;5.70;;;3.70;;
58669;SDS011;44439;47.924;10.198;2023-05-07T01:12:50;5.40;;;3.72;;
58669;SDS011;44439;47.924;10.198;2023-05-07T01:15:36;6.40;;;3.60;;
58669;SDS011;44439;47.924;10.198;2023-05-07T01:18:23;4.90;;;3.58;;
58669;SDS011;44439;47.924;10.198;2023-05-07T01:21:08;4.63;;;3.42;;
58669;SDS011;44439;47.924;10.198;2023-05-07T01:23:56;4.88;;;3.33;;
58669;SDS011;44439;47.924;10.198;2023-05-07T01:26:42;3.92;;;3.25;;
58669;SDS011;44439;47.924;10.198;2023-05-07T01:29:28;3.95;;;3.25;;
58669;SDS011;44439;47.924;10.198;2023-05-07T01:32:14;6.38;;;3.60;;
58669;SDS011;44439;47.924;10.198;2023-05-07T01:35:05;5.93;;;3.75;;
58669;SDS011;44439;47.924;10.198;2023-05-07T01:37:52;5.88;;;3.60;;
58669;SDS011;44439;47.924;10.198;2023-05-07T01:40:38;4.20;;;3.10;;
58669;SDS011;44439;47.924;10.198;2023-05-07T01:43:23;4.70;;;3.00;;
58669;SDS011;44439;47.924;10.198;2023-05-07T01:46:09;3.08;;;2.65;;
58669;SDS011;44439;47.924;10.198;2023-05-07T01:48:55;4.43;;;2.90;;
58669;SDS011;44439;47.924;10.198;2023-05-07T01:51:41;3.50;;;3.08;;
58669;SDS011;44439;47.924;10.198;2023-05-07T01:54:26;4.25;;;3.58;;
58669;SDS011;44439;47.924;10.198;2023-05-07T01:57:15;5.77;;;3.30;;
58669;SDS011;44439;47.924;10.198;2023-05-07T02:00:01;5.50;;;3.10;;
58669;SDS011;44439;47.924;10.198;2023-05-07T02:02:48;3.67;;;3.28;;
58669;SDS011;44439;47.924;10.198;2023-05-07T02:05:33;5.47;;;3.42;;
58669;SDS011;44439;47.924;10.198;2023-05-07T02:08:19;5.70;;;2.92;;
58669;SDS011;44439;47.924;10.198;2023-05-07T02:14:27;4.28;;;3.50;;
58669;SDS011;44439;47.924;10.198;2023-05-07T02:17:13;5.68;;;3.35;;
58669;SDS011;44439;47.924;10.198;2023-05-07T02:19:58;4.97;;;3.47;;
58669;SDS011;44439;47.924;10.198;2023-05-07T02:22:44;3.38;;;2.88;;
58669;SDS011;44439;47.924;10.198;2023-05-07T02:25:29;3.65;;;2.80;;
58669;SDS011;44439;47.924;10.198;2023-05-07T02:28:15;6.13;;;3.08;;
58669;SDS011;44439;47.924;10.198;2023-05-07T02:31:03;3.50;;;2.90;;
58669;SDS011;44439;47.924;10.198;2023-05-07T02:33:49;5.25;;;3.25;;
58669;SDS011;44439;47.924;10.198;2023-05-07T02:36:35;3.05;;;2.70;;
58669;SDS011;44439;47.924;10.198;2023-05-07T02:39:20;4.90;;;3.00;;
58669;SDS011;44439;47.924;10.198;2023-05-07T02:42:06;5.03;;;3.20;;
58669;SDS011;44439;47.924;10.198;2023-05-07T02:44:51;3.08;;;2.70;;
58669;SDS011;44439;47.924;10.198;2023-05-07T02:47:37;3.63;;;2.83;;
58669;SDS011;44439;47.924;10.198;2023-05-07T02:50:22;5.90;;;3.60;;
58669;SDS011;44439;47.924;10.198;2023-05-07T02:53:08;5.15;;;3.33;;
58669;SDS011;44439;47.924;10.198;2023-05-07T02:55:54;3.60;;;3.00;;
58669;SDS011;44439;47.924;10.198;2023-05-07T02:58:40;4.07;;;2.70;;
58669;SDS011;44439;47.924;10.198;2023-05-07T03:01:27;2.95;;;2.65;;
58669;SDS011;44439;47.924;10.198;2023-05-07T03:04:12;4.88;;;3.15;;
58669;SDS011;44439;47.924;10.198;2023-05-07T03:06:58;2.90;;;2.50;;
58669;SDS011;44439;47.924;10.198;2023-05-07T03:09:43;3.05;;;2.42;;
58669;SDS011;44439;47.924;10.198;2023-05-07T03:12:29;4.45;;;2.80;;
58669;SDS011;44439;47.924;10.198;2023-05-07T03:15:15;4.32;;;2.85;;
58669;SDS011;44439;47.924;10.198;2023-05-07T03:18:00;3.85;;;2.53;;
58669;SDS011;44439;47.924;10.198;2023-05-07T03:20:47;3.28;;;2.53;;
58669;SDS011;44439;47.924;10.198;2023-05-07T03:23:33;3.97;;;2.22;;
58669;SDS011;44439;47.924;10.198;2023-05-07T03:26:19;3.75;;;1.98;;
58669;SDS011;44439;47.924;10.198;2023-05-07T03:29:05;4.63;;;2.85;;
58669;SDS011;44439;47.924;10.198;2023-05-07T03:31:50;3.33;;;2.47;;
58669;SDS011;44439;47.924;10.198;2023-05-07T03:34:36;5.15;;;2.78;;
58669;SDS011;44439;47.924;10.198;2023-05-07T03:37:21;3.97;;;2.75;;
58669;SDS011;44439;47.924;10.198;2023-05-07T03:40:07;2.60;;;2.40;;
58669;SDS011;44439;47.924;10.198;2023-05-07T03:42:54;5.15;;;2.85;;
58669;SDS011;44439;47.924;10.198;2023-05-07T03:45:40;3.10;;;2.80;;
58669;SDS011;44439;47.924;10.198;2023-05-07T03:48:25;2.85;;;2.60;;
58669;SDS011;44439;47.924;10.198;2023-05-07T03:51:11;4.07;;;2.78;;
58669;SDS011;44439;47.924;10.198;2023-05-07T03:53:56;5.78;;;3.20;;
58669;SDS011;44439;47.924;10.198;2023-05-07T03:56:51;3.40;;;3.10;;
58669;SDS011;44439;47.924;10.198;2023-05-07T03:59:36;3.80;;;3.33;;
58669;SDS011;44439;47.924;10.198;2023-05-07T04:02:22;4.05;;;2.90;;
58669;SDS011;44439;47.924;10.198;2023-05-07T04:05:09;5.15;;;3.22;;
58669;SDS011;44439;47.924;10.198;2023-05-07T04:07:58;3.97;;;2.97;;
58669;SDS011;44439;47.924;10.198;2023-05-07T04:10:45;3.63;;;2.90;;
58669;SDS011;44439;47.924;10.198;2023-05-07T04:13:31;3.85;;;3.10;;
58669;SDS011;44439;47.924;10.198;2023-05-07T04:16:18;3.65;;;2.97;;
58669;SDS011;44439;47.924;10.198;2023-05-07T04:19:03;4.20;;;3.78;;
58669;SDS011;44439;47.924;10.198;2023-05-07T04:21:49;5.25;;;3.72;;
58669;SDS011;44439;47.924;10.198;2023-05-07T04:24:34;5.95;;;3.63;;
58669;SDS011;44439;47.924;10.198;2023-05-07T04:27:20;6.00;;;3.75;;
58669;SDS011;44439;47.924;10.198;2023-05-07T04:30:06;6.25;;;3.40;;
58669;SDS011;44439;47.924;10.198;2023-05-07T04:32:52;3.28;;;2.97;;
58669;SDS011;44439;47.924;10.198;2023-05-07T04:35:38;4.50;;;3.53;;
58669;SDS011;44439;47.924;10.198;2023-05-07T04:38:23;3.70;;;2.92;;
58669;SDS011;44439;47.924;10.198;2023-05-07T04:41:09;3.63;;;2.92;;
58669;SDS011;44439;47.924;10.198;2023-05-07T04:43:55;6.07;;;4.30;;
58669;SDS011;44439;47.924;10.198;2023-05-07T04:46:42;5.38;;;4.82;;
58669;SDS011;44439;47.924;10.198;2023-05-07T04:49:27;4.85;;;4.28;;
58669;SDS011;44439;47.924;10.198;2023-05-07T04:52:13;5.50;;;4.40;;
58669;SDS011;44439;47.924;10.198;2023-05-07T04:54:59;5.38;;;4.13;;
58669;SDS011;44439;47.924;10.198;2023-05-07T04:57:53;4.38;;;3.97;;
58669;SDS011;44439;47.924;10.198;2023-05-07T05:00:39;3.80;;;3.40;;
58669;SDS011;44439;47.924;10.198;2023-05-07T05:03:24;5.22;;;3.60;;
58669;SDS011;44439;47.924;10.198;2023-05-07T05:06:10;5.25;;;3.22;;
58669;SDS011;44439;47.924;10.198;2023-05-07T05:08:55;3.50;;;3.20;;
58669;SDS011;44439;47.924;10.198;2023-05-07T05:11:41;4.93;;;3.47;;
58669;SDS011;44439;47.924;10.198;2023-05-07T05:14:26;6.38;;;3.60;;
58669;SDS011;44439;47.924;10.198;2023-05-07T05:17:12;4.13;;;3.65;;
58669;SDS011;44439;47.924;10.198;2023-05-07T05:19:58;4.68;;;3.45;;
58669;SDS011;44439;47.924;10.198;2023-05-07T05:22:43;3.38;;;2.80;;
58669;SDS011;44439;47.924;10.198;2023-05-07T05:25:29;2.55;;;2.35;;
58669;SDS011;44439;47.924;10.198;2023-05-07T05:28:14;3.85;;;2.85;;
58669;SDS011;44439;47.924;10.198;2023-05-07T05:31:00;2.90;;;2.30;;
58669;SDS011;44439;47.924;10.198;2023-05-07T05:33:46;5.65;;;2.38;;
58669;SDS011;44439;47.924;10.198;2023-05-07T05:36:31;2.58;;;2.30;;
58669;SDS011;44439;47.924;10.198;2023-05-07T05:39:17;3.75;;;2.47;;
58669;SDS011;44439;47.924;10.198;2023-05-07T05:42:03;3.25;;;2.10;;
58669;SDS011;44439;47.924;10.198;2023-05-07T05:44:48;4.03;;;2.00;;
58669;SDS011;44439;47.924;10.198;2023-05-07T05:47:34;2.75;;;1.95;;
58669;SDS011;44439;47.924;10.198;2023-05-07T05:50:19;3.15;;;2.30;;
58669;SDS011;44439;47.924;10.198;2023-05-07T05:53:05;4.22;;;1.70;;
58669;SDS011;44439;47.924;10.198;2023-05-07T05:55:50;2.15;;;1.55;;
58669;SDS011;44439;47.924;10.198;2023-05-07T05:58:36;2.88;;;2.05;;
58669;SDS011;44439;47.924;10.198;2023-05-07T06:01:22;3.88;;;2.40;;
58669;SDS011;44439;47.924;10.198;2023-05-07T06:04:07;3.53;;;1.90;;
58669;SDS011;44439;47.924;10.198;2023-05-07T06:06:53;2.60;;;1.92;;
58669;SDS011;44439;47.924;10.198;2023-05-07T06:09:38;2.95;;;1.90;;
58669;SDS011;44439;47.924;10.198;2023-05-07T06:12:24;2.75;;;2.13;;
58669;SDS011;44439;47.924;10.198;2023-05-07T06:15:10;2.28;;;1.92;;
58669;SDS011;44439;47.924;10.198;2023-05-07T06:17:55;2.58;;;1.92;;
58669;SDS011;44439;47.924;10.198;2023-05-07T06:20:42;2.47;;;1.95;;
58669;SDS011;44439;47.924;10.198;2023-05-07T06:23:28;3.33;;;2.40;;
58669;SDS011;44439;47.924;10.198;2023-05-07T06:26:13;3.65;;;2.10;;
58669;SDS011;44439;47.924;10.198;2023-05-07T06:28:59;6.50;;;1.80;;
58669;SDS011;44439;47.924;10.198;2023-05-07T06:31:44;2.00;;;1.70;;
58669;SDS011;44439;47.924;10.198;2023-05-07T06:34:30;4.30;;;1.80;;
58669;SDS011;44439;47.924;10.198;2023-05-07T06:37:15;4.70;;;1.70;;
58669;SDS011;44439;47.924;10.198;2023-05-07T06:40:01;2.80;;;1.92;;
58669;SDS011;44439;47.924;10.198;2023-05-07T06:42:47;2.25;;;1.75;;
58669;SDS011;44439;47.924;10.198;2023-05-07T06:45:32;3.00;;;1.50;;
58669;SDS011;44439;47.924;10.198;2023-05-07T06:48:17;4.35;;;1.50;;
58669;SDS011;44439;47.924;10.198;2023-05-07T06:51:03;2.50;;;1.50;;
58669;SDS011;44439;47.924;10.198;2023-05-07T06:53:49;2.47;;;1.60;;
58669;SDS011;44439;47.924;10.198;2023-05-07T06:56:34;1.55;;;1.45;;
58669;SDS011;44439;47.924;10.198;2023-05-07T06:59:20;1.80;;;1.58;;
58669;SDS011;44439;47.924;10.198;2023-05-07T07:02:06;3.83;;;1.55;;
58669;SDS011;44439;47.924;10.198;2023-05-07T07:04:51;2.00;;;1.60;;
58669;SDS011;44439;47.924;10.198;2023-05-07T07:07:37;2.72;;;1.48;;
58669;SDS011;44439;47.924;10.198;2023-05-07T07:10:22;1.75;;;1.60;;
58669;SDS011;44439;47.924;10.198;2023-05-07T07:13:08;2.17;;;1.63;;
58669;SDS011;44439;47.924;10.198;2023-05-07T07:15:53;2.60;;;1.40;;
58669;SDS011;44439;47.924;10.198;2023-05-07T07:18:39;2.97;;;1.50;;
58669;SDS011;44439;47.924;10.198;2023-05-07T07:21:25;2.17;;;1.20;;
58669;SDS011;44439;47.924;10.198;2023-05-07T07:24:10;1.95;;;1.40;;
58669;SDS011;44439;47.924;10.198;2023-05-07T07:26:56;1.50;;;1.40;;
58669;SDS011;44439;47.924;10.198;2023-05-07T07:29:42;2.53;;;1.48;;
58669;SDS011;44439;47.924;10.198;2023-05-07T07:32:27;6.25;;;1.50;;
58669;SDS011;44439;47.924;10.198;2023-05-07T07:35:13;2.35;;;1.50;;
58669;SDS011;44439;47.924;10.198;2023-05-07T07:37:59;2.28;;;1.23;;
58669;SDS011;44439;47.924;10.198;2023-05-07T07:40:45;3.22;;;1.50;;
58669;SDS011;44439;47.924;10.198;2023-05-07T07:43:31;2.83;;;1.40;;
58669;SDS011;44439;47.924;10.198;2023-05-07T07:46:17;1.88;;;1.45;;
58669;SDS011;44439;47.924;10.198;2023-05-07T07:49:02;3.85;;;1.60;;
58669;SDS011;44439;47.924;10.198;2023-05-07T07:51:48;3.40;;;1.50;;
58669;SDS011;44439;47.924;10.198;2023-05-07T07:54:33;2.35;;;1.45;;
58669;SDS011;44439;47.924;10.198;2023-05-07T07:57:19;4.00;;;1.77;;
58669;SDS011;44439;47.924;10.198;2023-05-07T08:00:04;3.22;;;1.90;;
58669;SDS011;44439;47.924;10.198;2023-05-07T08:02:52;3.03;;;1.50;;
58669;SDS011;44439;47.924;10.198;2023-05-07T08:05:38;4.05;;;1.77;;
58669;SDS011;44439;47.924;10.198;2023-05-07T08:08:23;1.95;;;1.48;;
58669;SDS011;44439;47.924;10.198;2023-05-07T08:11:09;3.20;;;1.33;;
58669;SDS011;44439;47.924;10.198;2023-05-07T08:13:55;1.98;;;1.45;;
58669;SDS011;44439;47.924;10.198;2023-05-07T08:16:41;3.17;;;1.60;;
58669;SDS011;44439;47.924;10.198;2023-05-07T08:19:26;3.95;;;2.25;;
58669;SDS011;44439;47.924;10.198;2023-05-07T08:22:12;3.88;;;2.08;;
58669;SDS011;44439;47.924;10.198;2023-05-07T08:24:58;2.47;;;1.90;;
58669;SDS011;44439;47.924;10.198;2023-05-07T08:27:43;2.70;;;2.00;;
58669;SDS011;44439;47.924;10.198;2023-05-07T08:30:30;3.00;;;2.15;;
58669;SDS011;44439;47.924;10.198;2023-05-07T08:33:15;6.15;;;2.33;;
58669;SDS011;44439;47.924;10.198;2023-05-07T08:36:01;2.25;;;1.90;;
58669;SDS011;44439;47.924;10.198;2023-05-07T08:38:46;4.18;;;2.33;;
58669;SDS011;44439;47.924;10.198;2023-05-07T08:41:32;3.58;;;2.25;;
58669;SDS011;44439;47.924;10.198;2023-05-07T08:44:18;4.10;;;2.33;;
58669;SDS011;44439;47.924;10.198;2023-05-07T08:47:06;3.55;;;2.70;;
58669;SDS011;44439;47.924;10.198;2023-05-07T08:49:53;3.47;;;2.63;;
58669;SDS011;44439;47.924;10.198;2023-05-07T08:52:42;2.42;;;2.22;;
58669;SDS011;44439;47.924;10.198;2023-05-07T08:55:28;2.40;;;2.20;;
58669;SDS011;44439;47.924;10.198;2023-05-07T08:58:14;5.25;;;2.53;;
58669;SDS011;44439;47.924;10.198;2023-05-07T09:01:01;3.42;;;2.60;;
58669;SDS011;44439;47.924;10.198;2023-05-07T09:03:51;3.13;;;2.35;;
58669;SDS011;44439;47.924;10.198;2023-05-07T09:06:37;5.05;;;2.33;;
58669;SDS011;44439;47.924;10.198;2023-05-07T09:09:26;3.00;;;2.50;;
58669;SDS011;44439;47.924;10.198;2023-05-07T09:12:12;3.53;;;2.65;;
58669;SDS011;44439;47.924;10.198;2023-05-07T09:14:58;9.43;;;2.85;;
58669;SDS011;44439;47.924;10.198;2023-05-07T09:17:44;4.18;;;2.13;;
58669;SDS011;44439;47.924;10.198;2023-05-07T09:20:30;2.30;;;2.00;;
58669;SDS011;44439;47.924;10.198;2023-05-07T09:23:16;3.30;;;2.40;;
58669;SDS011;44439;47.924;10.198;2023-05-07T09:26:02;4.28;;;1.77;;
58669;SDS011;44439;47.924;10.198;2023-05-07T09:28:47;3.38;;;1.52;;
58669;SDS011;44439;47.924;10.198;2023-05-07T09:31:36;4.85;;;2.13;;
58669;SDS011;44439;47.924;10.198;2023-05-07T09:34:21;3.78;;;1.88;;
58669;SDS011;44439;47.924;10.198;2023-05-07T09:37:07;3.05;;;1.90;;
58669;SDS011;44439;47.924;10.198;2023-05-07T09:39:53;6.03;;;1.80;;
58669;SDS011;44439;47.924;10.198;2023-05-07T09:42:39;4.30;;;2.20;;
58669;SDS011;44439;47.924;10.198;2023-05-07T09:45:25;3.08;;;2.20;;
58669;SDS011;44439;47.924;10.198;2023-05-07T09:48:11;2.45;;;1.80;;
58669;SDS011;44439;47.924;10.198;2023-05-07T09:50:58;2.83;;;2.00;;
58669;SDS011;44439;47.924;10.198;2023-05-07T09:53:47;2.53;;;1.70;;
58669;SDS011;44439;47.924;10.198;2023-05-07T09:56:33;2.47;;;1.45;;
58669;SDS011;44439;47.924;10.198;2023-05-07T09:59:19;2.38;;;1.73;;
58669;SDS011;44439;47.924;10.198;2023-05-07T10:02:05;3.20;;;1.63;;
58669;SDS011;44439;47.924;10.198;2023-05-07T10:04:51;2.10;;;1.23;;
58669;SDS011;44439;47.924;10.198;2023-05-07T10:07:37;2.05;;;1.17;;
58669;SDS011;44439;47.924;10.198;2023-05-07T10:10:23;2.35;;;1.30;;
58669;SDS011;44439;47.924;10.198;2023-05-07T10:13:09;1.77;;;1.25;;
58669;SDS011;44439;47.924;10.198;2023-05-07T10:15:56;1.50;;;1.35;;
58669;SDS011;44439;47.924;10.198;2023-05-07T10:18:42;3.88;;;1.30;;
58669;SDS011;44439;47.924;10.198;2023-05-07T10:21:28;4.45;;;1.35;;
58669;SDS011;44439;47.924;10.198;2023-05-07T10:24:25;2.88;;;1.20;;
58669;SDS011;44439;47.924;10.198;2023-05-07T10:27:12;2.83;;;1.48;;
58669;SDS011;44439;47.924;10.198;2023-05-07T10:32:51;2.83;;;1.85;;
58669;SDS011;44439;47.924;10.198;2023-05-07T10:35:40;1.88;;;1.30;;
58669;SDS011;44439;47.924;10.198;2023-05-07T10:38:27;3.08;;;1.45;;
58669;SDS011;44439;47.924;10.198;2023-05-07T10:41:13;2.35;;;1.50;;
58669;SDS011;44439;47.924;10.198;2023-05-07T10:43:58;1.67;;;1.50;;
58669;SDS011;44439;47.924;10.198;2023-05-07T10:47:02;2.03;;;1.27;;
58669;SDS011;44439;47.924;10.198;2023-05-07T10:50:19;1.90;;;1.00;;
58669;SDS011;44439;47.924;10.198;2023-05-07T11:02:15;2.45;;;1.20;;
58669;SDS011;44439;47.924;10.198;2023-05-07T11:08:06;3.78;;;1.45;;
58669;SDS011;44439;47.924;10.198;2023-05-07T11:10:55;2.15;;;1.25;;
58669;SDS011;44439;47.924;10.198;2023-05-07T11:13:47;1.85;;;1.10;;
58669;SDS011;44439;47.924;10.198;2023-05-07T11:16:32;1.67;;;1.20;;
58669;SDS011;44439;47.924;10.198;2023-05-07T11:19:47;1.50;;;1.17;;
58669;SDS011;44439;47.924;10.198;2023-05-07T11:25:18;2.53;;;1.38;;
58669;SDS011;44439;47.924;10.198;2023-05-07T11:28:07;2.13;;;1.42;;
58669;SDS011;44439;47.924;10.198;2023-05-07T11:30:52;2.67;;;1.50;;
58669;SDS011;44439;47.924;10.198;2023-05-07T11:33:38;3.00;;;1.80;;
58669;SDS011;44439;47.924;10.198;2023-05-07T11:36:23;2.67;;;1.58;;
58669;SDS011;44439;47.924;10.198;2023-05-07T11:39:29;3.13;;;1.80;;
58669;SDS011;44439;47.924;10.198;2023-05-07T11:45:12;1.45;;;1.35;;
58669;SDS011;44439;47.924;10.198;2023-05-07T11:48:07;2.90;;;1.55;;
58669;SDS011;44439;47.924;10.198;2023-05-07T11:50:54;3.25;;;1.40;;
58669;SDS011;44439;47.924;10.198;2023-05-07T11:53:40;1.38;;;1.27;;
58669;SDS011;44439;47.924;10.198;2023-05-07T11:56:26;1.73;;;1.45;;
58669;SDS011;44439;47.924;10.198;2023-05-07T11:59:11;3.60;;;1.40;;
58669;SDS011;44439;47.924;10.198;2023-05-07T12:01:57;1.67;;;1.20;;
58669;SDS011;44439;47.924;10.198;2023-05-07T12:04:44;2.13;;;1.50;;
58669;SDS011;44439;47.924;10.198;2023-05-07T12:07:29;2.75;;;1.33;;
58669;SDS011;44439;47.924;10.198;2023-05-07T12:10:15;3.55;;;1.40;;
58669;SDS011;44439;47.924;10.198;2023-05-07T12:13:00;4.75;;;1.40;;
58669;SDS011;44439;47.924;10.198;2023-05-07T12:15:46;4.38;;;1.50;;
58669;SDS011;44439;47.924;10.198;2023-05-07T12:18:32;2.08;;;1.10;;
58669;SDS011;44439;47.924;10.198;2023-05-07T12:21:21;4.63;;;2.10;;
58669;SDS011;44439;47.924;10.198;2023-05-07T12:24:07;2.03;;;1.58;;
58669;SDS011;44439;47.924;10.198;2023-05-07T12:26:53;2.85;;;1.90;;
58669;SDS011;44439;47.924;10.198;2023-05-07T12:29:39;2.13;;;1.83;;
58669;SDS011;44439;47.924;10.198;2023-05-07T12:32:28;1.80;;;1.67;;
58669;SDS011;44439;47.924;10.198;2023-05-07T12:35:27;3.22;;;2.40;;
58669;SDS011;44439;47.924;10.198;2023-05-07T12:38:13;2.85;;;1.98;;
58669;SDS011;44439;47.924;10.198;2023-05-07T12:40:59;4.45;;;2.03;;
58669;SDS011;44439;47.924;10.198;2023-05-07T12:43:45;2.10;;;1.90;;
58669;SDS011;44439;47.924;10.198;2023-05-07T12:46:31;4.07;;;1.75;;
58669;SDS011;44439;47.924;10.198;2023-05-07T12:49:16;3.53;;;1.88;;
58669;SDS011;44439;47.924;10.198;2023-05-07T12:52:03;2.13;;;1.90;;
58669;SDS011;44439;47.924;10.198;2023-05-07T12:54:48;2.38;;;1.92;;
58669;SDS011;44439;47.924;10.198;2023-05-07T12:57:45;1.83;;;1.50;;
58669;SDS011;44439;47.924;10.198;2023-05-07T13:00:36;1.73;;;1.30;;
58669;SDS011;44439;47.924;10.198;2023-05-07T13:03:22;1.15;;;1.02;;
58669;SDS011;44439;47.924;10.198;2023-05-07T13:06:09;1.70;;;1.40;;
58669;SDS011;44439;47.924;10.198;2023-05-07T13:08:55;1.85;;;1.48;;
58669;SDS011;44439;47.924;10.198;2023-05-07T13:11:40;2.67;;;1.40;;
58669;SDS011;44439;47.924;10.198;2023-05-07T13:14:27;2.65;;;1.48;;
58669;SDS011;44439;47.924;10.198;2023-05-07T13:17:15;2.92;;;1.70;;
58669;SDS011;44439;47.924;10.198;2023-05-07T13:20:01;2.25;;;1.52;;
58669;SDS011;44439;47.924;10.198;2023-05-07T13:22:46;3.83;;;1.67;;
58669;SDS011;44439;47.924;10.198;2023-05-07T13:25:32;2.00;;;1.75;;
58669;SDS011;44439;47.924;10.198;2023-05-07T13:28:17;2.40;;;1.60;;
58669;SDS011;44439;47.924;10.198;2023-05-07T13:31:03;2.50;;;1.38;;
58669;SDS011;44439;47.924;10.198;2023-05-07T13:33:48;1.98;;;1.30;;
58669;SDS011;44439;47.924;10.198;2023-05-07T13:36:34;3.47;;;1.30;;
58669;SDS011;44439;47.924;10.198;2023-05-07T13:39:22;3.50;;;1.20;;
58669;SDS011;44439;47.924;10.198;2023-05-07T13:42:07;1.75;;;1.20;;
58669;SDS011;44439;47.924;10.198;2023-05-07T13:44:53;1.65;;;1.10;;
58669;SDS011;44439;47.924;10.198;2023-05-07T13:47:40;1.27;;;0.90;;
58669;SDS011;44439;47.924;10.198;2023-05-07T13:50:26;2.50;;;1.10;;
58669;SDS011;44439;47.924;10.198;2023-05-07T13:53:12;1.35;;;0.80;;
58669;SDS011;44439;47.924;10.198;2023-05-07T13:55:57;0.85;;;0.82;;
58669;SDS011;44439;47.924;10.198;2023-05-07T13:58:43;2.22;;;1.10;;
58669;SDS011;44439;47.924;10.198;2023-05-07T14:01:29;0.80;;;0.80;;
58669;SDS011;44439;47.924;10.198;2023-05-07T14:04:14;1.27;;;1.10;;
58669;SDS011;44439;47.924;10.198;2023-05-07T14:07:00;3.03;;;1.23;;
58669;SDS011;44439;47.924;10.198;2023-05-07T14:09:45;3.05;;;1.60;;
58669;SDS011;44439;47.924;10.198;2023-05-07T14:12:31;1.83;;;1.70;;
58669;SDS011;44439;47.924;10.198;2023-05-07T14:15:17;2.90;;;1.70;;
58669;SDS011;44439;47.924;10.198;2023-05-07T14:18:02;2.90;;;1.63;;
58669;SDS011;44439;47.924;10.198;2023-05-07T14:20:48;3.03;;;1.60;;
58669;SDS011;44439;47.924;10.198;2023-05-07T14:23:34;2.55;;;1.60;;
58669;SDS011;44439;47.924;10.198;2023-05-07T14:26:19;2.90;;;1.70;;
58669;SDS011;44439;47.924;10.198;2023-05-07T14:29:06;2.45;;;1.77;;
58669;SDS011;44439;47.924;10.198;2023-05-07T14:31:51;1.92;;;1.65;;
58669;SDS011;44439;47.924;10.198;2023-05-07T14:34:37;2.67;;;1.52;;
58669;SDS011;44439;47.924;10.198;2023-05-07T14:37:22;2.20;;;1.40;;
58669;SDS011;44439;47.924;10.198;2023-05-07T14:40:09;2.95;;;1.35;;
58669;SDS011;44439;47.924;10.198;2023-05-07T14:42:55;3.00;;;1.48;;
58669;SDS011;44439;47.924;10.198;2023-05-07T14:45:42;1.63;;;1.30;;
58669;SDS011;44439;47.924;10.198;2023-05-07T14:48:28;3.00;;;1.80;;
58669;SDS011;44439;47.924;10.198;2023-05-07T14:51:13;2.25;;;1.45;;
58669;SDS011;44439;47.924;10.198;2023-05-07T14:53:59;2.90;;;1.73;;
58669;SDS011;44439;47.924;10.198;2023-05-07T14:56:45;5.95;;;1.50;;
58669;SDS011;44439;47.924;10.198;2023-05-07T14:59:31;3.40;;;1.65;;
58669;SDS011;44439;47.924;10.198;2023-05-07T15:02:17;3.65;;;1.58;;
58669;SDS011;44439;47.924;10.198;2023-05-07T15:05:03;2.67;;;1.58;;
58669;SDS011;44439;47.924;10.198;2023-05-07T15:07:49;4.05;;;1.75;;
58669;SDS011;44439;47.924;10.198;2023-05-07T15:10:35;2.40;;;1.50;;
58669;SDS011;44439;47.924;10.198;2023-05-07T15:13:25;2.30;;;1.83;;
58669;SDS011;44439;47.924;10.198;2023-05-07T15:16:10;4.10;;;1.60;;
58669;SDS011;44439;47.924;10.198;2023-05-07T15:18:56;3.10;;;1.50;;
58669;SDS011;44439;47.924;10.198;2023-05-07T15:21:41;4.85;;;1.98;;
58669;SDS011;44439;47.924;10.198;2023-05-07T15:24:28;2.67;;;1.90;;
58669;SDS011;44439;47.924;10.198;2023-05-07T15:27:13;1.52;;;1.35;;
58669;SDS011;44439;47.924;10.198;2023-05-07T15:29:59;3.15;;;1.65;;
58669;SDS011;44439;47.924;10.198;2023-05-07T15:32:45;3.33;;;1.90;;
58669;SDS011;44439;47.924;10.198;2023-05-07T15:35:30;2.92;;;1.85;;
58669;SDS011;44439;47.924;10.198;2023-05-07T15:38:16;3.13;;;1.67;;
58669;SDS011;44439;47.924;10.198;2023-05-07T15:41:01;3.75;;;2.40;;
58669;SDS011;44439;47.924;10.198;2023-05-07T15:43:47;5.15;;;2.00;;
58669;SDS011;44439;47.924;10.198;2023-05-07T15:46:33;2.30;;;1.60;;
58669;SDS011;44439;47.924;10.198;2023-05-07T15:49:19;3.40;;;1.40;;
58669;SDS011;44439;47.924;10.198;2023-05-07T15:52:04;1.50;;;1.40;;
58669;SDS011;44439;47.924;10.198;2023-05-07T15:54:50;3.35;;;1.45;;
58669;SDS011;44439;47.924;10.198;2023-05-07T15:57:35;3.45;;;1.70;;
58669;SDS011;44439;47.924;10.198;2023-05-07T16:00:21;2.67;;;1.80;;
58669;SDS011;44439;47.924;10.198;2023-05-07T16:03:06;2.22;;;1.65;;
58669;SDS011;44439;47.924;10.198;2023-05-07T16:05:52;2.58;;;1.90;;
58669;SDS011;44439;47.924;10.198;2023-05-07T16:08:38;3.00;;;1.90;;
58669;SDS011;44439;47.924;10.198;2023-05-07T16:11:28;2.15;;;1.60;;
58669;SDS011;44439;47.924;10.198;2023-05-07T16:14:15;2.85;;;1.90;;
58669;SDS011;44439;47.924;10.198;2023-05-07T16:17:00;5.50;;;2.22;;
58669;SDS011;44439;47.924;10.198;2023-05-07T16:19:46;2.75;;;1.80;;
58669;SDS011;44439;47.924;10.198;2023-05-07T16:22:31;3.47;;;1.52;;
58669;SDS011;44439;47.924;10.198;2023-05-07T16:25:17;3.35;;;2.38;;
58669;SDS011;44439;47.924;10.198;2023-05-07T16:28:03;6.63;;;4.47;;
58669;SDS011;44439;47.924;10.198;2023-05-07T16:30:48;5.97;;;4.35;;
58669;SDS011;44439;47.924;10.198;2023-05-07T16:33:37;2.30;;;1.05;;
58669;SDS011;44439;47.924;10.198;2023-05-07T16:36:25;1.30;;;0.90;;
58669;SDS011;44439;47.924;10.198;2023-05-07T16:39:11;1.98;;;1.00;;
58669;SDS011;44439;47.924;10.198;2023-05-07T16:41:56;1.05;;;0.98;;
58669;SDS011;44439;47.924;10.198;2023-05-07T16:44:42;2.50;;;0.80;;
58669;SDS011;44439;47.924;10.198;2023-05-07T16:47:27;2.15;;;1.00;;
58669;SDS011;44439;47.924;10.198;2023-05-07T16:50:13;2.15;;;1.25;;